sensor_id;sensor_type;location;lat;lon;timestamp;P1;durP1;ratioP1;P2;durP2;ratioP2
50709;SDS011;37033;49.994;21.992;2022-09-17T00:02:25;10.10;;;7.60;;
50709;SDS011;37033;49.994;21.992;2022-09-17T00:05:15;9.10;;;7.60;;
50709;SDS011;37033;49.994;21.992;2022-09-17T00:08:06;11.10;;;7.60;;
50709;SDS011;37033;49.994;21.992;2022-09-17T00:11:04;11.20;;;7.80;;
50709;SDS011;37033;49.994;21.992;2022-09-17T00:13:56;8.10;;;7.20;;
50709;SDS011;37033;49.994;21.992;2022-09-17T00:16:48;12.60;;;6.70;;
50709;SDS011;37033;49.994;21.992;2022-09-17T00:19:37;8.00;;;7.00;;
50709;SDS011;37033;49.994;21.992;2022-09-17T00:22:27;10.20;;;7.00;;
50709;SDS011;37033;49.994;21.992;2022-09-17T00:25:17;8.90;;;7.50;;
50709;SDS011;37033;49.994;21.992;2022-09-17T00:28:07;10.90;;;7.20;;
50709;SDS011;37033;49.994;21.992;2022-09-17T00:30:59;9.80;;;7.10;;
50709;SDS011;37033;49.994;21.992;2022-09-17T00:33:53;8.00;;;7.20;;
50709;SDS011;37033;49.994;21.992;2022-09-17T00:36:43;9.70;;;7.40;;
50709;SDS011;37033;49.994;21.992;2022-09-17T00:39:33;8.00;;;7.20;;
50709;SDS011;37033;49.994;21.992;2022-09-17T00:42:23;10.90;;;7.90;;
50709;SDS011;37033;49.994;21.992;2022-09-17T00:45:13;8.00;;;7.20;;
50709;SDS011;37033;49.994;21.992;2022-09-17T00:48:04;8.60;;;7.70;;
50709;SDS011;37033;49.994;21.992;2022-09-17T00:50:57;8.10;;;7.30;;
50709;SDS011;37033;49.994;21.992;2022-09-17T00:53:48;7.70;;;7.00;;
50709;SDS011;37033;49.994;21.992;2022-09-17T00:56:39;9.00;;;7.70;;
50709;SDS011;37033;49.994;21.992;2022-09-17T00:59:30;9.70;;;7.40;;
50709;SDS011;37033;49.994;21.992;2022-09-17T01:02:21;9.80;;;7.60;;
50709;SDS011;37033;49.994;21.992;2022-09-17T01:05:12;8.80;;;7.60;;
50709;SDS011;37033;49.994;21.992;2022-09-17T01:08:06;8.60;;;7.30;;
50709;SDS011;37033;49.994;21.992;2022-09-17T01:11:15;7.90;;;7.10;;
50709;SDS011;37033;49.994;21.992;2022-09-17T01:14:18;8.00;;;7.00;;
50709;SDS011;37033;49.994;21.992;2022-09-17T01:17:23;7.80;;;6.70;;
50709;SDS011;37033;49.994;21.992;2022-09-17T01:20:26;11.60;;;6.80;;
50709;SDS011;37033;49.994;21.992;2022-09-17T01:23:46;7.70;;;6.70;;
50709;SDS011;37033;49.994;21.992;2022-09-17T01:26:53;7.90;;;7.10;;
50709;SDS011;37033;49.994;21.992;2022-09-17T01:33:14;7.70;;;6.90;;
50709;SDS011;37033;49.994;21.992;2022-09-17T01:36:18;7.00;;;6.20;;
50709;SDS011;37033;49.994;21.992;2022-09-17T01:39:20;7.20;;;6.50;;
50709;SDS011;37033;49.994;21.992;2022-09-17T01:42:22;7.50;;;6.70;;
50709;SDS011;37033;49.994;21.992;2022-09-17T01:45:18;7.80;;;6.50;;
50709;SDS011;37033;49.994;21.992;2022-09-17T01:48:15;7.50;;;6.70;;
50709;SDS011;37033;49.994;21.992;2022-09-17T01:51:06;9.50;;;5.80;;
50709;SDS011;37033;49.994;21.992;2022-09-17T01:54:00;12.00;;;6.70;;
50709;SDS011;37033;49.994;21.992;2022-09-17T01:56:55;7.50;;;6.70;;
50709;SDS011;37033;49.994;21.992;2022-09-17T01:59:49;9.50;;;6.00;;
50709;SDS011;37033;49.994;21.992;2022-09-17T02:02:44;7.20;;;6.10;;
50709;SDS011;37033;49.994;21.992;2022-09-17T02:05:40;8.50;;;6.10;;
50709;SDS011;37033;49.994;21.992;2022-09-17T02:08:36;7.40;;;5.70;;
50709;SDS011;37033;49.994;21.992;2022-09-17T02:11:30;8.00;;;6.00;;
50709;SDS011;37033;49.994;21.992;2022-09-17T02:14:23;6.60;;;5.70;;
50709;SDS011;37033;49.994;21.992;2022-09-17T02:17:23;6.70;;;6.00;;
50709;SDS011;37033;49.994;21.992;2022-09-17T02:20:19;8.80;;;7.20;;
50709;SDS011;37033;49.994;21.992;2022-09-17T02:23:17;6.70;;;6.00;;
50709;SDS011;37033;49.994;21.992;2022-09-17T02:26:15;7.60;;;6.90;;
50709;SDS011;37033;49.994;21.992;2022-09-17T02:29:08;7.80;;;7.00;;
50709;SDS011;37033;49.994;21.992;2022-09-17T02:34:51;9.40;;;6.20;;
50709;SDS011;37033;49.994;21.992;2022-09-17T02:37:41;8.60;;;6.70;;
50709;SDS011;37033;49.994;21.992;2022-09-17T02:40:33;7.20;;;5.70;;
50709;SDS011;37033;49.994;21.992;2022-09-17T02:43:31;7.70;;;6.20;;
50709;SDS011;37033;49.994;21.992;2022-09-17T02:46:42;6.30;;;5.70;;
50709;SDS011;37033;49.994;21.992;2022-09-17T02:49:46;7.70;;;6.10;;
50709;SDS011;37033;49.994;21.992;2022-09-17T02:52:52;6.90;;;5.70;;
50709;SDS011;37033;49.994;21.992;2022-09-17T02:55:51;7.50;;;6.80;;
50709;SDS011;37033;49.994;21.992;2022-09-17T02:58:50;6.70;;;5.90;;
50709;SDS011;37033;49.994;21.992;2022-09-17T03:01:45;11.10;;;5.80;;
50709;SDS011;37033;49.994;21.992;2022-09-17T03:04:40;6.90;;;6.10;;
50709;SDS011;37033;49.994;21.992;2022-09-17T03:07:32;7.20;;;6.60;;
50709;SDS011;37033;49.994;21.992;2022-09-17T03:10:23;6.20;;;5.60;;
50709;SDS011;37033;49.994;21.992;2022-09-17T03:13:16;7.30;;;6.60;;
50709;SDS011;37033;49.994;21.992;2022-09-17T03:16:06;11.30;;;6.10;;
50709;SDS011;37033;49.994;21.992;2022-09-17T03:18:56;8.10;;;6.30;;
50709;SDS011;37033;49.994;21.992;2022-09-17T03:21:46;9.30;;;6.50;;
50709;SDS011;37033;49.994;21.992;2022-09-17T03:24:37;7.10;;;5.90;;
50709;SDS011;37033;49.994;21.992;2022-09-17T03:27:27;8.20;;;5.90;;
50709;SDS011;37033;49.994;21.992;2022-09-17T03:30:17;8.20;;;6.50;;
50709;SDS011;37033;49.994;21.992;2022-09-17T03:33:07;8.30;;;6.10;;
50709;SDS011;37033;49.994;21.992;2022-09-17T03:35:57;6.70;;;6.10;;
50709;SDS011;37033;49.994;21.992;2022-09-17T03:38:47;11.50;;;6.90;;
50709;SDS011;37033;49.994;21.992;2022-09-17T03:41:40;6.90;;;6.30;;
50709;SDS011;37033;49.994;21.992;2022-09-17T03:44:30;9.50;;;6.70;;
50709;SDS011;37033;49.994;21.992;2022-09-17T03:47:20;8.00;;;6.80;;
50709;SDS011;37033;49.994;21.992;2022-09-17T03:50:10;9.20;;;6.60;;
50709;SDS011;37033;49.994;21.992;2022-09-17T03:53:00;10.20;;;7.70;;
50709;SDS011;37033;49.994;21.992;2022-09-17T03:55:50;10.00;;;7.30;;
50709;SDS011;37033;49.994;21.992;2022-09-17T03:58:40;8.00;;;6.50;;
50709;SDS011;37033;49.994;21.992;2022-09-17T04:01:30;10.30;;;7.30;;
50709;SDS011;37033;49.994;21.992;2022-09-17T04:04:20;8.90;;;6.60;;
50709;SDS011;37033;49.994;21.992;2022-09-17T04:07:10;8.20;;;6.70;;
50709;SDS011;37033;49.994;21.992;2022-09-17T04:10:00;12.70;;;7.60;;
50709;SDS011;37033;49.994;21.992;2022-09-17T04:12:51;7.80;;;6.40;;
50709;SDS011;37033;49.994;21.992;2022-09-17T04:15:41;8.70;;;6.40;;
50709;SDS011;37033;49.994;21.992;2022-09-17T04:18:31;9.30;;;7.50;;
50709;SDS011;37033;49.994;21.992;2022-09-17T04:21:21;9.70;;;6.80;;
50709;SDS011;37033;49.994;21.992;2022-09-17T04:24:11;7.70;;;6.80;;
50709;SDS011;37033;49.994;21.992;2022-09-17T04:27:01;9.10;;;7.20;;
50709;SDS011;37033;49.994;21.992;2022-09-17T04:29:51;7.60;;;6.70;;
50709;SDS011;37033;49.994;21.992;2022-09-17T04:32:41;8.80;;;6.10;;
50709;SDS011;37033;49.994;21.992;2022-09-17T04:35:32;8.10;;;6.10;;
50709;SDS011;37033;49.994;21.992;2022-09-17T04:38:22;10.30;;;7.00;;
50709;SDS011;37033;49.994;21.992;2022-09-17T04:41:12;8.70;;;6.60;;
50709;SDS011;37033;49.994;21.992;2022-09-17T04:44:02;8.90;;;6.80;;
50709;SDS011;37033;49.994;21.992;2022-09-17T04:46:52;11.00;;;6.90;;
50709;SDS011;37033;49.994;21.992;2022-09-17T04:49:42;7.00;;;6.20;;
50709;SDS011;37033;49.994;21.992;2022-09-17T04:52:32;7.80;;;6.20;;
50709;SDS011;37033;49.994;21.992;2022-09-17T04:55:21;9.80;;;7.30;;
50709;SDS011;37033;49.994;21.992;2022-09-17T04:58:11;7.20;;;6.50;;
50709;SDS011;37033;49.994;21.992;2022-09-17T05:01:01;9.00;;;6.40;;
50709;SDS011;37033;49.994;21.992;2022-09-17T05:03:51;12.40;;;7.10;;
50709;SDS011;37033;49.994;21.992;2022-09-17T05:06:41;9.90;;;6.80;;
50709;SDS011;37033;49.994;21.992;2022-09-17T05:09:31;8.20;;;6.90;;
50709;SDS011;37033;49.994;21.992;2022-09-17T05:12:22;7.70;;;6.80;;
50709;SDS011;37033;49.994;21.992;2022-09-17T05:15:12;9.20;;;6.60;;
50709;SDS011;37033;49.994;21.992;2022-09-17T05:18:02;10.60;;;7.10;;
50709;SDS011;37033;49.994;21.992;2022-09-17T05:20:52;8.00;;;6.70;;
50709;SDS011;37033;49.994;21.992;2022-09-17T05:23:42;10.00;;;6.40;;
50709;SDS011;37033;49.994;21.992;2022-09-17T05:26:32;7.60;;;6.80;;
50709;SDS011;37033;49.994;21.992;2022-09-17T05:29:22;9.40;;;7.60;;
50709;SDS011;37033;49.994;21.992;2022-09-17T05:32:12;9.90;;;7.50;;
50709;SDS011;37033;49.994;21.992;2022-09-17T05:35:02;15.10;;;7.10;;
50709;SDS011;37033;49.994;21.992;2022-09-17T05:37:59;8.90;;;7.00;;
50709;SDS011;37033;49.994;21.992;2022-09-17T05:40:50;11.20;;;7.00;;
50709;SDS011;37033;49.994;21.992;2022-09-17T05:43:41;8.80;;;7.90;;
50709;SDS011;37033;49.994;21.992;2022-09-17T05:46:31;11.40;;;9.30;;
50709;SDS011;37033;49.994;21.992;2022-09-17T05:49:21;9.40;;;7.60;;
50709;SDS011;37033;49.994;21.992;2022-09-17T05:52:11;7.60;;;6.80;;
50709;SDS011;37033;49.994;21.992;2022-09-17T05:55:01;22.70;;;15.40;;
50709;SDS011;37033;49.994;21.992;2022-09-17T05:57:52;10.30;;;8.30;;
50709;SDS011;37033;49.994;21.992;2022-09-17T06:00:42;13.90;;;7.60;;
50709;SDS011;37033;49.994;21.992;2022-09-17T06:03:33;16.90;;;7.40;;
50709;SDS011;37033;49.994;21.992;2022-09-17T06:06:23;8.60;;;6.50;;
50709;SDS011;37033;49.994;21.992;2022-09-17T06:09:14;15.00;;;7.70;;
50709;SDS011;37033;49.994;21.992;2022-09-17T06:12:05;14.00;;;8.50;;
50709;SDS011;37033;49.994;21.992;2022-09-17T06:14:55;11.60;;;7.80;;
50709;SDS011;37033;49.994;21.992;2022-09-17T06:17:45;13.50;;;9.00;;
50709;SDS011;37033;49.994;21.992;2022-09-17T06:20:35;13.00;;;8.60;;
50709;SDS011;37033;49.994;21.992;2022-09-17T06:23:25;11.70;;;9.10;;
50709;SDS011;37033;49.994;21.992;2022-09-17T06:26:20;9.90;;;7.80;;
50709;SDS011;37033;49.994;21.992;2022-09-17T06:29:10;8.60;;;7.00;;
50709;SDS011;37033;49.994;21.992;2022-09-17T06:32:01;7.30;;;6.60;;
50709;SDS011;37033;49.994;21.992;2022-09-17T06:34:50;13.20;;;6.50;;
50709;SDS011;37033;49.994;21.992;2022-09-17T06:37:41;10.10;;;6.30;;
50709;SDS011;37033;49.994;21.992;2022-09-17T06:40:31;6.00;;;5.40;;
50709;SDS011;37033;49.994;21.992;2022-09-17T06:43:21;10.40;;;6.50;;
50709;SDS011;37033;49.994;21.992;2022-09-17T06:46:12;7.90;;;5.20;;
50709;SDS011;37033;49.994;21.992;2022-09-17T06:49:02;8.80;;;5.30;;
50709;SDS011;37033;49.994;21.992;2022-09-17T06:51:52;7.10;;;5.90;;
50709;SDS011;37033;49.994;21.992;2022-09-17T06:54:42;6.40;;;5.80;;
50709;SDS011;37033;49.994;21.992;2022-09-17T06:57:32;9.20;;;5.30;;
50709;SDS011;37033;49.994;21.992;2022-09-17T07:00:22;7.80;;;5.80;;
50709;SDS011;37033;49.994;21.992;2022-09-17T07:03:12;7.70;;;5.70;;
50709;SDS011;37033;49.994;21.992;2022-09-17T07:06:02;8.60;;;5.70;;
50709;SDS011;37033;49.994;21.992;2022-09-17T07:08:55;7.70;;;5.50;;
50709;SDS011;37033;49.994;21.992;2022-09-17T07:11:46;7.90;;;5.40;;
50709;SDS011;37033;49.994;21.992;2022-09-17T07:14:36;9.20;;;7.30;;
50709;SDS011;37033;49.994;21.992;2022-09-17T07:17:29;9.40;;;5.90;;
50709;SDS011;37033;49.994;21.992;2022-09-17T07:20:18;10.00;;;6.00;;
50709;SDS011;37033;49.994;21.992;2022-09-17T07:23:08;8.80;;;5.90;;
50709;SDS011;37033;49.994;21.992;2022-09-17T07:25:59;30.40;;;17.20;;
50709;SDS011;37033;49.994;21.992;2022-09-17T07:28:50;10.40;;;7.50;;
50709;SDS011;37033;49.994;21.992;2022-09-17T07:31:40;6.90;;;5.60;;
50709;SDS011;37033;49.994;21.992;2022-09-17T07:34:30;5.90;;;4.90;;
50709;SDS011;37033;49.994;21.992;2022-09-17T07:37:19;4.50;;;4.10;;
50709;SDS011;37033;49.994;21.992;2022-09-17T07:40:10;3.90;;;3.30;;
50709;SDS011;37033;49.994;21.992;2022-09-17T07:43:00;3.90;;;3.50;;
50709;SDS011;37033;49.994;21.992;2022-09-17T07:45:49;9.10;;;4.50;;
50709;SDS011;37033;49.994;21.992;2022-09-17T07:48:39;4.80;;;3.80;;
50709;SDS011;37033;49.994;21.992;2022-09-17T07:51:30;4.80;;;3.20;;
50709;SDS011;37033;49.994;21.992;2022-09-17T07:54:20;6.30;;;3.90;;
50709;SDS011;37033;49.994;21.992;2022-09-17T07:57:10;4.70;;;2.90;;
50709;SDS011;37033;49.994;21.992;2022-09-17T08:00:01;4.50;;;3.00;;
50709;SDS011;37033;49.994;21.992;2022-09-17T08:02:55;7.10;;;2.80;;
50709;SDS011;37033;49.994;21.992;2022-09-17T08:05:45;5.40;;;2.80;;
50709;SDS011;37033;49.994;21.992;2022-09-17T08:08:35;3.20;;;2.90;;
50709;SDS011;37033;49.994;21.992;2022-09-17T08:11:27;4.10;;;3.00;;
50709;SDS011;37033;49.994;21.992;2022-09-17T08:14:17;4.30;;;2.60;;
50709;SDS011;37033;49.994;21.992;2022-09-17T08:17:07;4.80;;;2.60;;
50709;SDS011;37033;49.994;21.992;2022-09-17T08:19:57;2.80;;;2.20;;
50709;SDS011;37033;49.994;21.992;2022-09-17T08:22:47;13.60;;;3.40;;
50709;SDS011;37033;49.994;21.992;2022-09-17T08:25:37;2.70;;;2.20;;
50709;SDS011;37033;49.994;21.992;2022-09-17T08:28:28;6.40;;;2.70;;
50709;SDS011;37033;49.994;21.992;2022-09-17T08:31:18;3.60;;;2.70;;
50709;SDS011;37033;49.994;21.992;2022-09-17T08:34:09;4.20;;;2.60;;
50709;SDS011;37033;49.994;21.992;2022-09-17T08:36:59;3.30;;;2.40;;
50709;SDS011;37033;49.994;21.992;2022-09-17T08:39:49;4.40;;;2.20;;
50709;SDS011;37033;49.994;21.992;2022-09-17T08:42:40;1.90;;;1.70;;
50709;SDS011;37033;49.994;21.992;2022-09-17T08:45:40;2.30;;;1.80;;
50709;SDS011;37033;49.994;21.992;2022-09-17T08:48:33;3.50;;;1.70;;
50709;SDS011;37033;49.994;21.992;2022-09-17T08:51:30;3.00;;;1.90;;
50709;SDS011;37033;49.994;21.992;2022-09-17T08:54:32;4.00;;;1.80;;
50709;SDS011;37033;49.994;21.992;2022-09-17T08:57:30;2.00;;;1.60;;
50709;SDS011;37033;49.994;21.992;2022-09-17T09:00:27;2.60;;;1.40;;
50709;SDS011;37033;49.994;21.992;2022-09-17T09:03:27;6.70;;;1.70;;
50709;SDS011;37033;49.994;21.992;2022-09-17T09:06:28;2.00;;;1.80;;
50709;SDS011;37033;49.994;21.992;2022-09-17T09:09:22;2.30;;;1.80;;
50709;SDS011;37033;49.994;21.992;2022-09-17T09:12:19;2.90;;;1.70;;
50709;SDS011;37033;49.994;21.992;2022-09-17T09:15:29;2.10;;;1.50;;
50709;SDS011;37033;49.994;21.992;2022-09-17T09:18:24;3.20;;;1.70;;
50709;SDS011;37033;49.994;21.992;2022-09-17T09:21:19;4.10;;;1.80;;
50709;SDS011;37033;49.994;21.992;2022-09-17T09:24:16;4.10;;;1.70;;
50709;SDS011;37033;49.994;21.992;2022-09-17T09:27:16;9.60;;;4.20;;
50709;SDS011;37033;49.994;21.992;2022-09-17T09:33:21;1.40;;;1.10;;
50709;SDS011;37033;49.994;21.992;2022-09-17T09:39:10;2.70;;;1.20;;
50709;SDS011;37033;49.994;21.992;2022-09-17T09:42:05;1.70;;;1.20;;
50709;SDS011;37033;49.994;21.992;2022-09-17T09:45:10;2.40;;;1.60;;
50709;SDS011;37033;49.994;21.992;2022-09-17T09:48:02;5.80;;;4.30;;
50709;SDS011;37033;49.994;21.992;2022-09-17T09:51:03;1.30;;;1.20;;
50709;SDS011;37033;49.994;21.992;2022-09-17T09:54:07;2.60;;;1.40;;
50709;SDS011;37033;49.994;21.992;2022-09-17T10:03:17;2.90;;;1.30;;
50709;SDS011;37033;49.994;21.992;2022-09-17T10:06:09;1.60;;;1.40;;
50709;SDS011;37033;49.994;21.992;2022-09-17T10:09:10;2.50;;;1.40;;
50709;SDS011;37033;49.994;21.992;2022-09-17T10:12:03;1.80;;;1.00;;
50709;SDS011;37033;49.994;21.992;2022-09-17T10:15:20;2.50;;;1.00;;
50709;SDS011;37033;49.994;21.992;2022-09-17T10:18:16;2.80;;;1.00;;
50709;SDS011;37033;49.994;21.992;2022-09-17T10:21:08;2.80;;;2.30;;
50709;SDS011;37033;49.994;21.992;2022-09-17T10:24:11;3.60;;;1.00;;
50709;SDS011;37033;49.994;21.992;2022-09-17T10:27:12;5.70;;;1.60;;
50709;SDS011;37033;49.994;21.992;2022-09-17T10:30:13;3.10;;;1.20;;
50709;SDS011;37033;49.994;21.992;2022-09-17T10:33:11;2.60;;;1.10;;
50709;SDS011;37033;49.994;21.992;2022-09-17T10:36:07;4.00;;;1.10;;
50709;SDS011;37033;49.994;21.992;2022-09-17T10:39:00;3.30;;;1.10;;
50709;SDS011;37033;49.994;21.992;2022-09-17T10:42:16;3.50;;;1.20;;
50709;SDS011;37033;49.994;21.992;2022-09-17T10:45:11;1.30;;;1.00;;
50709;SDS011;37033;49.994;21.992;2022-09-17T10:48:14;2.20;;;1.20;;
50709;SDS011;37033;49.994;21.992;2022-09-17T10:51:06;4.90;;;2.90;;
50709;SDS011;37033;49.994;21.992;2022-09-17T10:57:13;1.80;;;1.10;;
50709;SDS011;37033;49.994;21.992;2022-09-17T11:00:13;2.80;;;1.50;;
50709;SDS011;37033;49.994;21.992;2022-09-17T11:03:17;2.60;;;1.20;;
50709;SDS011;37033;49.994;21.992;2022-09-17T11:06:40;2.60;;;1.60;;
50709;SDS011;37033;49.994;21.992;2022-09-17T11:09:46;3.90;;;2.80;;
50709;SDS011;37033;49.994;21.992;2022-09-17T11:12:50;2.70;;;1.40;;
50709;SDS011;37033;49.994;21.992;2022-09-17T11:15:55;2.30;;;1.10;;
50709;SDS011;37033;49.994;21.992;2022-09-17T11:18:55;5.20;;;1.40;;
50709;SDS011;37033;49.994;21.992;2022-09-17T11:21:53;3.60;;;1.20;;
50709;SDS011;37033;49.994;21.992;2022-09-17T11:25:13;2.40;;;1.10;;
50709;SDS011;37033;49.994;21.992;2022-09-17T11:28:28;3.00;;;1.90;;
50709;SDS011;37033;49.994;21.992;2022-09-17T11:31:33;1.30;;;0.90;;
50709;SDS011;37033;49.994;21.992;2022-09-17T11:34:25;1.80;;;1.10;;
50709;SDS011;37033;49.994;21.992;2022-09-17T11:37:21;1.70;;;1.10;;
50709;SDS011;37033;49.994;21.992;2022-09-17T11:40:14;3.10;;;1.00;;
50709;SDS011;37033;49.994;21.992;2022-09-17T11:43:11;1.70;;;0.90;;
50709;SDS011;37033;49.994;21.992;2022-09-17T11:46:08;5.50;;;2.40;;
50709;SDS011;37033;49.994;21.992;2022-09-17T11:49:02;1.40;;;1.10;;
50709;SDS011;37033;49.994;21.992;2022-09-17T11:52:10;1.20;;;0.60;;
50709;SDS011;37033;49.994;21.992;2022-09-17T11:55:08;2.90;;;0.70;;
50709;SDS011;37033;49.994;21.992;2022-09-17T11:58:09;1.50;;;1.10;;
50709;SDS011;37033;49.994;21.992;2022-09-17T12:01:02;3.70;;;1.20;;
50709;SDS011;37033;49.994;21.992;2022-09-17T12:03:56;2.10;;;0.70;;
50709;SDS011;37033;49.994;21.992;2022-09-17T12:06:51;1.60;;;1.00;;
50709;SDS011;37033;49.994;21.992;2022-09-17T12:09:47;1.30;;;0.90;;
50709;SDS011;37033;49.994;21.992;2022-09-17T12:12:41;3.00;;;0.90;;
50709;SDS011;37033;49.994;21.992;2022-09-17T12:15:34;1.50;;;0.90;;
50709;SDS011;37033;49.994;21.992;2022-09-17T12:18:43;2.10;;;0.90;;
50709;SDS011;37033;49.994;21.992;2022-09-17T12:21:37;2.70;;;1.70;;
50709;SDS011;37033;49.994;21.992;2022-09-17T12:24:31;2.10;;;1.90;;
50709;SDS011;37033;49.994;21.992;2022-09-17T12:27:23;3.90;;;1.30;;
50709;SDS011;37033;49.994;21.992;2022-09-17T12:30:22;2.30;;;1.70;;
50709;SDS011;37033;49.994;21.992;2022-09-17T12:33:17;2.10;;;1.60;;
50709;SDS011;37033;49.994;21.992;2022-09-17T12:36:18;6.80;;;1.60;;
50709;SDS011;37033;49.994;21.992;2022-09-17T12:42:58;3.20;;;1.10;;
50709;SDS011;37033;49.994;21.992;2022-09-17T12:45:59;1.10;;;1.00;;
50709;SDS011;37033;49.994;21.992;2022-09-17T12:49:20;1.10;;;0.90;;
50709;SDS011;37033;49.994;21.992;2022-09-17T12:52:25;2.00;;;1.10;;
50709;SDS011;37033;49.994;21.992;2022-09-17T12:55:29;1.90;;;1.20;;
50709;SDS011;37033;49.994;21.992;2022-09-17T12:58:31;2.10;;;1.20;;
50709;SDS011;37033;49.994;21.992;2022-09-17T13:01:34;2.10;;;1.10;;
50709;SDS011;37033;49.994;21.992;2022-09-17T13:07:51;2.50;;;1.10;;
50709;SDS011;37033;49.994;21.992;2022-09-17T13:14:23;2.50;;;1.10;;
50709;SDS011;37033;49.994;21.992;2022-09-17T13:17:26;2.00;;;1.20;;
50709;SDS011;37033;49.994;21.992;2022-09-17T13:20:22;4.00;;;1.20;;
50709;SDS011;37033;49.994;21.992;2022-09-17T13:23:23;12.50;;;1.50;;
50709;SDS011;37033;49.994;21.992;2022-09-17T13:26:20;1.70;;;1.00;;
50709;SDS011;37033;49.994;21.992;2022-09-17T13:32:46;3.10;;;2.40;;
50709;SDS011;37033;49.994;21.992;2022-09-17T13:35:53;2.10;;;1.20;;
50709;SDS011;37033;49.994;21.992;2022-09-17T13:38:43;3.00;;;1.20;;
50709;SDS011;37033;49.994;21.992;2022-09-17T13:41:33;2.60;;;1.30;;
50709;SDS011;37033;49.994;21.992;2022-09-17T13:44:25;2.40;;;1.50;;
50709;SDS011;37033;49.994;21.992;2022-09-17T13:47:20;3.70;;;1.30;;
50709;SDS011;37033;49.994;21.992;2022-09-17T13:50:23;2.50;;;1.40;;
50709;SDS011;37033;49.994;21.992;2022-09-17T13:53:17;4.50;;;1.60;;
50709;SDS011;37033;49.994;21.992;2022-09-17T13:59:20;2.70;;;1.50;;
50709;SDS011;37033;49.994;21.992;2022-09-17T14:05:31;2.60;;;1.70;;
50709;SDS011;37033;49.994;21.992;2022-09-17T14:08:28;3.20;;;1.70;;
50709;SDS011;37033;49.994;21.992;2022-09-17T14:11:36;3.00;;;1.80;;
50709;SDS011;37033;49.994;21.992;2022-09-17T14:14:41;3.70;;;1.80;;
50709;SDS011;37033;49.994;21.992;2022-09-17T14:17:50;3.40;;;1.70;;
50709;SDS011;37033;49.994;21.992;2022-09-17T14:20:40;8.40;;;1.80;;
50709;SDS011;37033;49.994;21.992;2022-09-17T14:23:31;2.80;;;1.50;;
50709;SDS011;37033;49.994;21.992;2022-09-17T14:26:34;2.90;;;1.90;;
50709;SDS011;37033;49.994;21.992;2022-09-17T14:29:46;4.10;;;2.20;;
50709;SDS011;37033;49.994;21.992;2022-09-17T14:33:04;5.00;;;2.40;;
50709;SDS011;37033;49.994;21.992;2022-09-17T14:36:07;5.00;;;2.40;;
50709;SDS011;37033;49.994;21.992;2022-09-17T14:38:58;2.80;;;1.80;;
50709;SDS011;37033;49.994;21.992;2022-09-17T14:41:49;4.00;;;2.20;;
50709;SDS011;37033;49.994;21.992;2022-09-17T14:44:46;5.50;;;1.90;;
50709;SDS011;37033;49.994;21.992;2022-09-17T14:47:41;4.80;;;2.80;;
50709;SDS011;37033;49.994;21.992;2022-09-17T14:50:31;2.60;;;1.90;;
50709;SDS011;37033;49.994;21.992;2022-09-17T14:53:21;2.90;;;2.00;;
50709;SDS011;37033;49.994;21.992;2022-09-17T14:56:11;3.90;;;1.50;;
50709;SDS011;37033;49.994;21.992;2022-09-17T14:59:03;4.30;;;1.70;;
50709;SDS011;37033;49.994;21.992;2022-09-17T15:01:59;2.60;;;2.00;;
50709;SDS011;37033;49.994;21.992;2022-09-17T15:04:50;4.30;;;2.90;;
50709;SDS011;37033;49.994;21.992;2022-09-17T15:07:40;2.40;;;2.00;;
50709;SDS011;37033;49.994;21.992;2022-09-17T15:10:30;2.00;;;1.50;;
50709;SDS011;37033;49.994;21.992;2022-09-17T15:13:24;4.30;;;1.60;;
50709;SDS011;37033;49.994;21.992;2022-09-17T15:16:16;3.50;;;2.00;;
50709;SDS011;37033;49.994;21.992;2022-09-17T15:19:11;5.00;;;2.00;;
50709;SDS011;37033;49.994;21.992;2022-09-17T15:22:06;3.40;;;1.90;;
50709;SDS011;37033;49.994;21.992;2022-09-17T15:25:02;4.80;;;2.50;;
50709;SDS011;37033;49.994;21.992;2022-09-17T15:27:55;3.30;;;1.90;;
50709;SDS011;37033;49.994;21.992;2022-09-17T15:30:50;4.20;;;2.10;;
50709;SDS011;37033;49.994;21.992;2022-09-17T15:33:40;7.60;;;4.10;;
50709;SDS011;37033;49.994;21.992;2022-09-17T15:36:31;2.90;;;2.20;;
50709;SDS011;37033;49.994;21.992;2022-09-17T15:39:30;2.90;;;2.40;;
50709;SDS011;37033;49.994;21.992;2022-09-17T15:42:28;5.60;;;3.30;;
50709;SDS011;37033;49.994;21.992;2022-09-17T15:45:19;6.40;;;2.30;;
50709;SDS011;37033;49.994;21.992;2022-09-17T15:48:20;4.90;;;2.30;;
50709;SDS011;37033;49.994;21.992;2022-09-17T15:51:25;3.50;;;2.20;;
50709;SDS011;37033;49.994;21.992;2022-09-17T15:54:27;3.60;;;2.60;;
50709;SDS011;37033;49.994;21.992;2022-09-17T15:57:18;4.30;;;2.70;;
50709;SDS011;37033;49.994;21.992;2022-09-17T16:00:13;4.20;;;2.60;;
50709;SDS011;37033;49.994;21.992;2022-09-17T16:06:54;6.30;;;4.50;;
50709;SDS011;37033;49.994;21.992;2022-09-17T16:09:48;18.10;;;10.40;;
50709;SDS011;37033;49.994;21.992;2022-09-17T16:12:39;16.10;;;10.30;;
50709;SDS011;37033;49.994;21.992;2022-09-17T16:15:29;11.20;;;7.00;;
50709;SDS011;37033;49.994;21.992;2022-09-17T16:18:19;10.10;;;6.20;;
50709;SDS011;37033;49.994;21.992;2022-09-17T16:21:09;15.40;;;6.40;;
50709;SDS011;37033;49.994;21.992;2022-09-17T16:23:59;17.10;;;7.90;;
50709;SDS011;37033;49.994;21.992;2022-09-17T16:26:49;14.70;;;8.10;;
50709;SDS011;37033;49.994;21.992;2022-09-17T16:29:39;18.40;;;8.50;;
50709;SDS011;37033;49.994;21.992;2022-09-17T16:32:28;22.60;;;10.70;;
50709;SDS011;37033;49.994;21.992;2022-09-17T16:35:19;12.00;;;6.30;;
50709;SDS011;37033;49.994;21.992;2022-09-17T16:38:11;7.70;;;5.00;;
50709;SDS011;37033;49.994;21.992;2022-09-17T16:41:02;7.10;;;4.50;;
50709;SDS011;37033;49.994;21.992;2022-09-17T16:43:52;8.10;;;4.40;;
50709;SDS011;37033;49.994;21.992;2022-09-17T16:46:42;7.70;;;4.80;;
50709;SDS011;37033;49.994;21.992;2022-09-17T16:49:33;8.90;;;4.90;;
50709;SDS011;37033;49.994;21.992;2022-09-17T16:52:23;9.70;;;5.40;;
50709;SDS011;37033;49.994;21.992;2022-09-17T16:55:13;9.00;;;5.60;;
50709;SDS011;37033;49.994;21.992;2022-09-17T16:58:04;9.60;;;6.40;;
50709;SDS011;37033;49.994;21.992;2022-09-17T17:00:53;9.90;;;5.60;;
50709;SDS011;37033;49.994;21.992;2022-09-17T17:03:43;8.50;;;6.20;;
50709;SDS011;37033;49.994;21.992;2022-09-17T17:06:37;7.00;;;5.10;;
50709;SDS011;37033;49.994;21.992;2022-09-17T17:09:27;10.90;;;5.60;;
50709;SDS011;37033;49.994;21.992;2022-09-17T17:12:17;8.10;;;4.60;;
50709;SDS011;37033;49.994;21.992;2022-09-17T17:15:07;7.80;;;5.20;;
50709;SDS011;37033;49.994;21.992;2022-09-17T17:17:57;6.10;;;4.40;;
50709;SDS011;37033;49.994;21.992;2022-09-17T17:20:47;7.70;;;4.90;;
50709;SDS011;37033;49.994;21.992;2022-09-17T17:23:38;6.30;;;5.00;;
50709;SDS011;37033;49.994;21.992;2022-09-17T17:26:29;8.00;;;5.60;;
50709;SDS011;37033;49.994;21.992;2022-09-17T17:29:18;7.50;;;4.60;;
50709;SDS011;37033;49.994;21.992;2022-09-17T17:32:08;6.90;;;5.20;;
50709;SDS011;37033;49.994;21.992;2022-09-17T17:34:57;6.80;;;4.50;;
50709;SDS011;37033;49.994;21.992;2022-09-17T17:37:47;7.70;;;5.10;;
50709;SDS011;37033;49.994;21.992;2022-09-17T17:40:37;8.60;;;4.80;;
50709;SDS011;37033;49.994;21.992;2022-09-17T17:43:27;6.90;;;5.20;;
50709;SDS011;37033;49.994;21.992;2022-09-17T17:46:17;7.50;;;5.20;;
50709;SDS011;37033;49.994;21.992;2022-09-17T17:49:07;11.70;;;6.70;;
50709;SDS011;37033;49.994;21.992;2022-09-17T17:51:57;7.60;;;6.50;;
50709;SDS011;37033;49.994;21.992;2022-09-17T17:54:47;8.50;;;6.00;;
50709;SDS011;37033;49.994;21.992;2022-09-17T17:57:37;6.80;;;5.40;;
50709;SDS011;37033;49.994;21.992;2022-09-17T18:00:27;16.70;;;9.30;;